sensor_id;sensor_type;location;lat;lon;timestamp;pressure;altitude;pressure_sealevel;temperature;humidity
4576;BME280;2300;51.874;8.430;2023-07-29T00:00:19;99934.38;;;19.27;100.00
4576;BME280;2300;51.874;8.430;2023-07-29T00:02:46;99923.22;;;19.27;100.00
4576;BME280;2300;51.874;8.430;2023-07-29T00:05:14;99934.56;;;19.31;100.00
4576;BME280;2300;51.874;8.430;2023-07-29T00:07:41;99928.28;;;19.12;100.00
4576;BME280;2300;51.874;8.430;2023-07-29T00:10:10;99910.84;;;19.20;100.00
4576;BME280;2300;51.874;8.430;2023-07-29T00:12:36;99926.72;;;19.33;100.00
4576;BME280;2300;51.874;8.430;2023-07-29T00:15:03;99921.88;;;19.25;100.00
4576;BME280;2300;51.874;8.430;2023-07-29T00:17:30;99923.44;;;19.31;100.00
4576;BME280;2300;51.874;8.430;2023-07-29T00:19:57;99922.81;;;19.34;100.00
4576;BME280;2300;51.874;8.430;2023-07-29T00:22:24;99916.00;;;19.40;100.00
4576;BME280;2300;51.874;8.430;2023-07-29T00:24:52;99920.34;;;19.33;100.00
4576;BME280;2300;51.874;8.430;2023-07-29T00:27:22;99914.88;;;19.27;100.00
4576;BME280;2300;51.874;8.430;2023-07-29T00:29:49;99910.13;;;19.28;100.00
4576;BME280;2300;51.874;8.430;2023-07-29T00:32:17;99905.59;;;19.18;100.00
4576;BME280;2300;51.874;8.430;2023-07-29T00:34:44;99902.94;;;19.27;100.00
4576;BME280;2300;51.874;8.430;2023-07-29T00:37:13;99914.25;;;19.31;100.00
4576;BME280;2300;51.874;8.430;2023-07-29T00:39:39;99914.97;;;19.36;100.00
4576;BME280;2300;51.874;8.430;2023-07-29T00:42:06;99921.16;;;19.33;100.00
4576;BME280;2300;51.874;8.430;2023-07-29T00:44:36;99912.69;;;19.38;100.00
4576;BME280;2300;51.874;8.430;2023-07-29T00:47:05;99911.56;;;19.39;100.00
4576;BME280;2300;51.874;8.430;2023-07-29T00:49:32;99917.13;;;19.39;100.00
4576;BME280;2300;51.874;8.430;2023-07-29T00:52:01;99914.78;;;19.46;100.00
4576;BME280;2300;51.874;8.430;2023-07-29T00:54:28;99912.91;;;19.55;100.00
4576;BME280;2300;51.874;8.430;2023-07-29T00:59:19;99903.63;;;19.46;100.00
4576;BME280;2300;51.874;8.430;2023-07-29T01:01:46;99899.31;;;19.40;100.00
4576;BME280;2300;51.874;8.430;2023-07-29T01:04:12;99902.63;;;19.42;100.00
4576;BME280;2300;51.874;8.430;2023-07-29T01:06:45;99896.41;;;19.18;100.00
4576;BME280;2300;51.874;8.430;2023-07-29T01:09:20;99902.81;;;19.32;100.00
4576;BME280;2300;51.874;8.430;2023-07-29T01:11:57;99910.25;;;19.37;100.00
4576;BME280;2300;51.874;8.430;2023-07-29T01:14:34;99905.50;;;19.37;100.00
4576;BME280;2300;51.874;8.430;2023-07-29T01:17:03;99907.13;;;19.24;100.00
4576;BME280;2300;51.874;8.430;2023-07-29T01:19:43;99898.16;;;19.14;100.00
4576;BME280;2300;51.874;8.430;2023-07-29T01:22:15;99902.94;;;19.27;100.00
4576;BME280;2300;51.874;8.430;2023-07-29T01:24:43;99899.72;;;19.20;100.00
4576;BME280;2300;51.874;8.430;2023-07-29T01:27:10;99901.66;;;19.19;100.00
4576;BME280;2300;51.874;8.430;2023-07-29T01:29:37;99893.31;;;19.06;100.00
4576;BME280;2300;51.874;8.430;2023-07-29T01:32:17;99901.88;;;19.23;100.00
4576;BME280;2300;51.874;8.430;2023-07-29T01:35:07;99893.63;;;19.18;100.00
4576;BME280;2300;51.874;8.430;2023-07-29T01:37:42;99883.75;;;19.12;100.00
4576;BME280;2300;51.874;8.430;2023-07-29T01:40:12;99875.06;;;19.13;100.00
4576;BME280;2300;51.874;8.430;2023-07-29T01:42:39;99881.38;;;19.05;100.00
4576;BME280;2300;51.874;8.430;2023-07-29T01:45:06;99885.19;;;18.96;100.00
4576;BME280;2300;51.874;8.430;2023-07-29T01:47:33;99882.78;;;19.03;100.00
4576;BME280;2300;51.874;8.430;2023-07-29T01:50:00;99876.00;;;18.95;100.00
4576;BME280;2300;51.874;8.430;2023-07-29T01:52:26;99870.63;;;18.99;100.00
4576;BME280;2300;51.874;8.430;2023-07-29T01:54:53;99877.84;;;19.00;100.00
4576;BME280;2300;51.874;8.430;2023-07-29T01:57:21;99865.06;;;19.12;100.00
4576;BME280;2300;51.874;8.430;2023-07-29T01:59:47;99872.28;;;19.13;100.00
4576;BME280;2300;51.874;8.430;2023-07-29T02:02:14;99874.16;;;19.04;100.00
4576;BME280;2300;51.874;8.430;2023-07-29T02:04:41;99873.72;;;18.97;100.00
4576;BME280;2300;51.874;8.430;2023-07-29T02:07:07;99877.44;;;18.93;100.00
4576;BME280;2300;51.874;8.430;2023-07-29T02:09:34;99877.84;;;18.86;100.00
4576;BME280;2300;51.874;8.430;2023-07-29T02:12:00;99885.28;;;18.91;100.00
4576;BME280;2300;51.874;8.430;2023-07-29T02:14:29;99870.94;;;18.97;100.00
4576;BME280;2300;51.874;8.430;2023-07-29T02:16:55;99871.56;;;18.94;100.00
4576;BME280;2300;51.874;8.430;2023-07-29T02:19:22;99873.72;;;18.83;100.00
4576;BME280;2300;51.874;8.430;2023-07-29T02:21:48;99869.41;;;18.91;100.00
4576;BME280;2300;51.874;8.430;2023-07-29T02:24:15;99867.22;;;18.88;100.00
4576;BME280;2300;51.874;8.430;2023-07-29T02:26:41;99866.22;;;18.98;100.00
4576;BME280;2300;51.874;8.430;2023-07-29T02:29:08;99849.63;;;18.93;100.00
4576;BME280;2300;51.874;8.430;2023-07-29T02:31:36;99848.88;;;18.87;100.00
4576;BME280;2300;51.874;8.430;2023-07-29T02:34:03;99850.63;;;18.97;100.00
4576;BME280;2300;51.874;8.430;2023-07-29T02:36:30;99852.72;;;18.91;100.00
4576;BME280;2300;51.874;8.430;2023-07-29T02:38:56;99855.41;;;19.10;100.00
4576;BME280;2300;51.874;8.430;2023-07-29T02:41:23;99856.03;;;19.07;100.00
4576;BME280;2300;51.874;8.430;2023-07-29T02:43:50;99848.09;;;19.14;100.00
4576;BME280;2300;51.874;8.430;2023-07-29T02:46:17;99849.22;;;19.13;100.00
4576;BME280;2300;51.874;8.430;2023-07-29T02:48:45;99860.75;;;19.20;100.00
4576;BME280;2300;51.874;8.430;2023-07-29T02:51:12;99856.22;;;19.24;100.00
4576;BME280;2300;51.874;8.430;2023-07-29T02:53:38;99856.13;;;19.29;100.00
4576;BME280;2300;51.874;8.430;2023-07-29T02:56:05;99855.41;;;19.23;100.00
4576;BME280;2300;51.874;8.430;2023-07-29T02:58:35;99856.56;;;19.22;100.00
4576;BME280;2300;51.874;8.430;2023-07-29T03:01:02;99853.44;;;19.24;100.00
4576;BME280;2300;51.874;8.430;2023-07-29T03:03:29;99854.56;;;19.23;100.00
4576;BME280;2300;51.874;8.430;2023-07-29T03:06:02;99845.63;;;19.26;100.00
4576;BME280;2300;51.874;8.430;2023-07-29T03:08:29;99839.03;;;19.22;100.00
4576;BME280;2300;51.874;8.430;2023-07-29T03:10:56;99831.19;;;19.10;100.00
4576;BME280;2300;51.874;8.430;2023-07-29T03:13:23;99834.56;;;19.07;100.00
4576;BME280;2300;51.874;8.430;2023-07-29T03:15:50;99829.84;;;19.08;100.00
4576;BME280;2300;51.874;8.430;2023-07-29T03:18:16;99831.50;;;19.09;100.00
4576;BME280;2300;51.874;8.430;2023-07-29T03:20:43;99833.78;;;19.07;100.00
4576;BME280;2300;51.874;8.430;2023-07-29T03:23:11;99833.25;;;19.05;100.00
4576;BME280;2300;51.874;8.430;2023-07-29T03:25:37;99839.94;;;19.04;100.00
4576;BME280;2300;51.874;8.430;2023-07-29T03:28:04;99836.66;;;19.02;100.00
4576;BME280;2300;51.874;8.430;2023-07-29T03:30:30;99831.59;;;19.04;100.00
4576;BME280;2300;51.874;8.430;2023-07-29T03:32:56;99832.31;;;19.09;100.00
4576;BME280;2300;51.874;8.430;2023-07-29T03:35:23;99843.66;;;19.13;100.00
4576;BME280;2300;51.874;8.430;2023-07-29T03:37:50;99843.03;;;19.16;100.00
4576;BME280;2300;51.874;8.430;2023-07-29T03:40:18;99833.56;;;19.17;100.00
4576;BME280;2300;51.874;8.430;2023-07-29T03:42:44;99829.53;;;19.23;100.00
4576;BME280;2300;51.874;8.430;2023-07-29T03:45:11;99827.47;;;19.28;100.00
4576;BME280;2300;51.874;8.430;2023-07-29T03:47:38;99822.22;;;19.27;100.00
4576;BME280;2300;51.874;8.430;2023-07-29T03:50:06;99821.81;;;19.20;100.00
4576;BME280;2300;51.874;8.430;2023-07-29T03:52:32;99821.50;;;19.21;100.00
4576;BME280;2300;51.874;8.430;2023-07-29T03:54:59;99820.03;;;19.24;100.00
4576;BME280;2300;51.874;8.430;2023-07-29T03:57:27;99817.97;;;19.29;100.00
4576;BME280;2300;51.874;8.430;2023-07-29T03:59:54;99813.88;;;19.27;100.00
4576;BME280;2300;51.874;8.430;2023-07-29T04:02:20;99813.25;;;19.30;100.00
4576;BME280;2300;51.874;8.430;2023-07-29T04:04:47;99817.25;;;19.24;100.00
4576;BME280;2300;51.874;8.430;2023-07-29T04:07:14;99814.38;;;19.29;100.00
4576;BME280;2300;51.874;8.430;2023-07-29T04:09:41;99815.38;;;19.33;100.00
4576;BME280;2300;51.874;8.430;2023-07-29T04:12:08;99815.38;;;19.33;100.00
4576;BME280;2300;51.874;8.430;2023-07-29T04:14:36;99825.50;;;19.29;100.00
4576;BME280;2300;51.874;8.430;2023-07-29T04:17:03;99799.56;;;19.20;100.00
4576;BME280;2300;51.874;8.430;2023-07-29T04:19:29;99811.91;;;19.27;100.00
4576;BME280;2300;51.874;8.430;2023-07-29T04:21:56;99804.91;;;19.30;100.00
4576;BME280;2300;51.874;8.430;2023-07-29T04:24:23;99810.88;;;19.37;100.00
4576;BME280;2300;51.874;8.430;2023-07-29T04:26:49;99812.41;;;19.29;100.00
4576;BME280;2300;51.874;8.430;2023-07-29T04:29:16;99813.78;;;19.32;100.00
4576;BME280;2300;51.874;8.430;2023-07-29T04:31:44;99801.59;;;19.28;100.00
4576;BME280;2300;51.874;8.430;2023-07-29T04:34:11;99816.44;;;19.37;100.00
4576;BME280;2300;51.874;8.430;2023-07-29T04:36:37;99819.94;;;19.29;100.00
4576;BME280;2300;51.874;8.430;2023-07-29T04:39:04;99825.50;;;19.29;100.00
4576;BME280;2300;51.874;8.430;2023-07-29T04:41:30;99825.91;;;19.36;100.00
4576;BME280;2300;51.874;8.430;2023-07-29T04:43:57;99822.59;;;19.34;100.00
4576;BME280;2300;51.874;8.430;2023-07-29T04:46:23;99821.19;;;19.37;100.00
4576;BME280;2300;51.874;8.430;2023-07-29T04:48:51;99810.88;;;19.37;100.00
4576;BME280;2300;51.874;8.430;2023-07-29T04:51:18;99817.88;;;19.48;100.00
4576;BME280;2300;51.874;8.430;2023-07-29T04:53:44;99815.78;;;19.54;100.00
4576;BME280;2300;51.874;8.430;2023-07-29T04:56:11;99814.34;;;19.56;100.00
4576;BME280;2300;51.874;8.430;2023-07-29T04:58:37;99809.16;;;19.63;100.00
4576;BME280;2300;51.874;8.430;2023-07-29T05:01:04;99796.59;;;19.66;100.00
4576;BME280;2300;51.874;8.430;2023-07-29T05:03:31;99804.66;;;19.67;100.00
4576;BME280;2300;51.874;8.430;2023-07-29T05:05:59;99792.59;;;19.45;100.00
4576;BME280;2300;51.874;8.430;2023-07-29T05:08:26;99799.69;;;19.51;100.00
4576;BME280;2300;51.874;8.430;2023-07-29T05:10:53;99808.88;;;19.51;100.00
4576;BME280;2300;51.874;8.430;2023-07-29T05:13:20;99801.53;;;19.55;100.00
4576;BME280;2300;51.874;8.430;2023-07-29T05:15:47;99806.91;;;19.65;100.00
4576;BME280;2300;51.874;8.430;2023-07-29T05:18:14;99795.03;;;19.74;100.00
4576;BME280;2300;51.874;8.430;2023-07-29T05:20:41;99797.25;;;19.85;100.00
4576;BME280;2300;51.874;8.430;2023-07-29T05:23:09;99793.44;;;19.81;100.00
4576;BME280;2300;51.874;8.430;2023-07-29T05:25:35;99797.94;;;19.91;100.00
4576;BME280;2300;51.874;8.430;2023-07-29T05:28:02;99781.81;;;20.01;100.00
4576;BME280;2300;51.874;8.430;2023-07-29T05:30:30;99793.78;;;20.02;100.00
4576;BME280;2300;51.874;8.430;2023-07-29T05:32:57;99795.19;;;20.13;100.00
4576;BME280;2300;51.874;8.430;2023-07-29T05:35:23;99802.41;;;20.14;100.00
4576;BME280;2300;51.874;8.430;2023-07-29T05:37:50;99794.91;;;20.01;100.00
4576;BME280;2300;51.874;8.430;2023-07-29T05:40:18;99784.03;;;20.13;100.00
4576;BME280;2300;51.874;8.430;2023-07-29T05:42:45;99785.28;;;20.07;100.00
4576;BME280;2300;51.874;8.430;2023-07-29T05:45:13;99776.88;;;20.21;100.00
4576;BME280;2300;51.874;8.430;2023-07-29T05:47:40;99775.09;;;20.25;100.00
4576;BME280;2300;51.874;8.430;2023-07-29T05:50:07;99794.91;;;20.23;100.00
4576;BME280;2300;51.874;8.430;2023-07-29T05:52:34;99800.88;;;20.30;100.00
4576;BME280;2300;51.874;8.430;2023-07-29T05:55:00;99783.38;;;20.16;100.00
4576;BME280;2300;51.874;8.430;2023-07-29T05:57:28;99799.63;;;20.14;100.00
4576;BME280;2300;51.874;8.430;2023-07-29T05:59:55;99795.25;;;19.99;100.00
4576;BME280;2300;51.874;8.430;2023-07-29T06:02:21;99801.19;;;20.06;100.00
4576;BME280;2300;51.874;8.430;2023-07-29T06:04:48;99810.91;;;20.09;100.00
4576;BME280;2300;51.874;8.430;2023-07-29T06:07:14;99803.66;;;20.08;100.00
4576;BME280;2300;51.874;8.430;2023-07-29T06:09:41;99810.50;;;20.02;100.00
4576;BME280;2300;51.874;8.430;2023-07-29T06:12:08;99815.81;;;20.12;100.00
4576;BME280;2300;51.874;8.430;2023-07-29T06:14:36;99818.81;;;20.16;100.00
4576;BME280;2300;51.874;8.430;2023-07-29T06:17:03;99824.25;;;20.21;100.00
4576;BME280;2300;51.874;8.430;2023-07-29T06:19:30;99826.59;;;20.05;100.00
4576;BME280;2300;51.874;8.430;2023-07-29T06:21:56;99825.31;;;20.11;100.00
4576;BME280;2300;51.874;8.430;2023-07-29T06:24:23;99823.59;;;20.01;100.00
4576;BME280;2300;51.874;8.430;2023-07-29T06:26:50;99814.00;;;20.07;100.00
4576;BME280;2300;51.874;8.430;2023-07-29T06:29:16;99805.63;;;20.07;100.00
4576;BME280;2300;51.874;8.430;2023-07-29T06:31:44;99796.19;;;20.17;100.00
4576;BME280;2300;51.874;8.430;2023-07-29T06:34:11;99794.09;;;20.23;100.00
4576;BME280;2300;51.874;8.430;2023-07-29T06:36:37;99794.53;;;20.16;100.00
4576;BME280;2300;51.874;8.430;2023-07-29T06:39:04;99783.25;;;20.21;100.00
4576;BME280;2300;51.874;8.430;2023-07-29T06:41:30;99788.81;;;20.21;100.00
4576;BME280;2300;51.874;8.430;2023-07-29T06:43:57;99805.94;;;20.28;100.00
4576;BME280;2300;51.874;8.430;2023-07-29T06:46:23;99814.69;;;20.35;100.00
4576;BME280;2300;51.874;8.430;2023-07-29T06:48:51;99812.38;;;20.37;100.00
4576;BME280;2300;51.874;8.430;2023-07-29T06:51:18;99827.28;;;20.33;100.00
4576;BME280;2300;51.874;8.430;2023-07-29T06:53:44;99833.28;;;20.26;100.00
4576;BME280;2300;51.874;8.430;2023-07-29T06:56:11;99837.69;;;20.19;100.00
4576;BME280;2300;51.874;8.430;2023-07-29T06:58:37;99841.16;;;20.24;100.00
4576;BME280;2300;51.874;8.430;2023-07-29T07:01:04;99843.44;;;20.22;100.00
4576;BME280;2300;51.874;8.430;2023-07-29T07:03:30;99852.75;;;20.18;100.00
4576;BME280;2300;51.874;8.430;2023-07-29T07:05:58;99854.06;;;19.98;100.00
4576;BME280;2300;51.874;8.430;2023-07-29T07:08:25;99862.72;;;19.96;100.00
4576;BME280;2300;51.874;8.430;2023-07-29T07:10:51;99863.69;;;19.92;100.00
4576;BME280;2300;51.874;8.430;2023-07-29T07:13:18;99858.75;;;19.89;100.00
4576;BME280;2300;51.874;8.430;2023-07-29T07:15:45;99866.22;;;20.02;100.00
4576;BME280;2300;51.874;8.430;2023-07-29T07:18:11;99866.94;;;20.07;100.00
4576;BME280;2300;51.874;8.430;2023-07-29T07:20:38;99856.47;;;20.13;100.00
4576;BME280;2300;51.874;8.430;2023-07-29T07:23:06;99858.28;;;20.31;100.00
4576;BME280;2300;51.874;8.430;2023-07-29T07:25:36;99852.09;;;20.43;100.00
4576;BME280;2300;51.874;8.430;2023-07-29T07:28:03;99859.16;;;20.63;100.00
4576;BME280;2300;51.874;8.430;2023-07-29T07:30:29;99867.03;;;20.91;100.00
4576;BME280;2300;51.874;8.430;2023-07-29T07:32:56;99873.03;;;21.07;100.00
4576;BME280;2300;51.874;8.430;2023-07-29T07:35:23;99868.75;;;21.10;98.41
4576;BME280;2300;51.874;8.430;2023-07-29T07:37:49;99863.44;;;21.00;96.41
4576;BME280;2300;51.874;8.430;2023-07-29T07:40:17;99870.50;;;20.97;95.42
4576;BME280;2300;51.874;8.430;2023-07-29T07:42:44;99873.56;;;21.18;94.61
4576;BME280;2300;51.874;8.430;2023-07-29T07:45:10;99874.66;;;21.39;93.25
4576;BME280;2300;51.874;8.430;2023-07-29T07:47:37;99876.66;;;21.56;92.59
4576;BME280;2300;51.874;8.430;2023-07-29T07:50:04;99865.38;;;21.69;91.89
4576;BME280;2300;51.874;8.430;2023-07-29T07:52:31;99860.25;;;21.63;90.04
4576;BME280;2300;51.874;8.430;2023-07-29T07:54:57;99860.91;;;21.60;90.71
4576;BME280;2300;51.874;8.430;2023-07-29T07:57:25;99863.41;;;21.70;90.21
4576;BME280;2300;51.874;8.430;2023-07-29T07:59:52;99874.53;;;21.61;88.88
4576;BME280;2300;51.874;8.430;2023-07-29T08:02:18;99872.84;;;21.34;88.56
4576;BME280;2300;51.874;8.430;2023-07-29T08:04:45;99866.59;;;21.29;88.55
4576;BME280;2300;51.874;8.430;2023-07-29T08:07:12;99867.75;;;21.36;88.73
4576;BME280;2300;51.874;8.430;2023-07-29T08:09:38;99865.31;;;21.52;88.37
4576;BME280;2300;51.874;8.430;2023-07-29T08:12:05;99866.16;;;21.53;87.45
4576;BME280;2300;51.874;8.430;2023-07-29T08:14:33;99865.53;;;21.73;86.80
4576;BME280;2300;51.874;8.430;2023-07-29T08:17:00;99862.25;;;21.71;86.06
4576;BME280;2300;51.874;8.430;2023-07-29T08:19:27;99866.50;;;21.20;84.94
4576;BME280;2300;51.874;8.430;2023-07-29T08:21:53;99864.88;;;20.88;85.44
4576;BME280;2300;51.874;8.430;2023-07-29T08:24:20;99875.63;;;20.73;86.52
4576;BME280;2300;51.874;8.430;2023-07-29T08:26:46;99876.72;;;20.63;86.91
4576;BME280;2300;51.874;8.430;2023-07-29T08:29:13;99884.50;;;20.52;85.10
4576;BME280;2300;51.874;8.430;2023-07-29T08:31:41;99892.88;;;20.52;85.10
4576;BME280;2300;51.874;8.430;2023-07-29T08:34:07;99881.75;;;20.83;84.62
4576;BME280;2300;51.874;8.430;2023-07-29T08:36:34;99878.34;;;21.74;84.16
4576;BME280;2300;51.874;8.430;2023-07-29T08:39:00;99885.31;;;22.02;77.40
4576;BME280;2300;51.874;8.430;2023-07-29T08:41:32;99879.53;;;21.90;76.84
4576;BME280;2300;51.874;8.430;2023-07-29T08:44:09;99883.00;;;22.04;77.88
4576;BME280;2300;51.874;8.430;2023-07-29T08:46:36;99888.78;;;22.42;75.98
4576;BME280;2300;51.874;8.430;2023-07-29T08:49:04;99891.09;;;23.13;75.81
4576;BME280;2300;51.874;8.430;2023-07-29T08:51:31;99888.06;;;23.73;74.25
4576;BME280;2300;51.874;8.430;2023-07-29T08:53:59;99886.88;;;23.74;70.57
4576;BME280;2300;51.874;8.430;2023-07-29T08:56:25;99884.91;;;23.74;71.22
4576;BME280;2300;51.874;8.430;2023-07-29T08:58:53;99888.09;;;23.94;71.24
4576;BME280;2300;51.874;8.430;2023-07-29T09:01:20;99886.31;;;24.30;70.07
4576;BME280;2300;51.874;8.430;2023-07-29T09:03:47;99878.28;;;24.29;68.92
4576;BME280;2300;51.874;8.430;2023-07-29T09:06:16;99881.53;;;24.10;68.19
4576;BME280;2300;51.874;8.430;2023-07-29T09:08:43;99871.59;;;23.92;67.69
4576;BME280;2300;51.874;8.430;2023-07-29T09:11:13;99877.50;;;23.70;67.34
4576;BME280;2300;51.874;8.430;2023-07-29T09:13:41;99885.03;;;23.57;68.20
4576;BME280;2300;51.874;8.430;2023-07-29T09:16:09;99882.09;;;23.74;68.62
4576;BME280;2300;51.874;8.430;2023-07-29T09:18:35;99890.41;;;23.92;66.70
4576;BME280;2300;51.874;8.430;2023-07-29T09:21:02;99899.31;;;23.94;68.07
4576;BME280;2300;51.874;8.430;2023-07-29T09:23:38;99904.25;;;24.17;67.50
4576;BME280;2300;51.874;8.430;2023-07-29T09:26:05;99903.34;;;24.46;67.23
4576;BME280;2300;51.874;8.430;2023-07-29T09:28:33;99902.56;;;23.96;66.74
4576;BME280;2300;51.874;8.430;2023-07-29T09:31:00;99904.59;;;24.16;67.98
4576;BME280;2300;51.874;8.430;2023-07-29T09:33:27;99898.31;;;23.89;68.28
4576;BME280;2300;51.874;8.430;2023-07-29T09:35:53;99897.63;;;24.22;67.85
4576;BME280;2300;51.874;8.430;2023-07-29T09:38:26;99898.53;;;24.14;66.60
4576;BME280;2300;51.874;8.430;2023-07-29T09:40:56;99903.13;;;24.51;66.19
4576;BME280;2300;51.874;8.430;2023-07-29T09:43:25;99900.69;;;24.29;65.00
4576;BME280;2300;51.874;8.430;2023-07-29T09:45:52;99901.16;;;24.31;64.87
4576;BME280;2300;51.874;8.430;2023-07-29T09:48:22;99891.53;;;24.20;65.69
4576;BME280;2300;51.874;8.430;2023-07-29T09:50:49;99899.19;;;24.11;65.23
4576;BME280;2300;51.874;8.430;2023-07-29T09:53:16;99892.19;;;24.58;65.67
4576;BME280;2300;51.874;8.430;2023-07-29T09:55:46;99899.81;;;24.91;65.18
4576;BME280;2300;51.874;8.430;2023-07-29T09:58:19;99892.38;;;25.31;63.44
4576;BME280;2300;51.874;8.430;2023-07-29T10:00:47;99890.94;;;25.01;62.98
4576;BME280;2300;51.874;8.430;2023-07-29T10:03:14;99885.72;;;24.79;63.32
4576;BME280;2300;51.874;8.430;2023-07-29T10:05:41;99893.25;;;24.33;64.60
4576;BME280;2300;51.874;8.430;2023-07-29T10:08:09;99886.06;;;24.23;65.32
4576;BME280;2300;51.874;8.430;2023-07-29T10:10:37;99892.41;;;24.12;64.20
4576;BME280;2300;51.874;8.430;2023-07-29T10:13:03;99875.81;;;24.60;67.35
4576;BME280;2300;51.874;8.430;2023-07-29T10:15:33;99886.47;;;25.00;63.42
4576;BME280;2300;51.874;8.430;2023-07-29T10:18:01;99895.16;;;25.07;62.98
4576;BME280;2300;51.874;8.430;2023-07-29T10:20:29;99886.47;;;25.00;62.84
4576;BME280;2300;51.874;8.430;2023-07-29T10:22:59;99885.94;;;24.73;63.04
4576;BME280;2300;51.874;8.430;2023-07-29T10:25:32;99890.97;;;24.47;64.31
4576;BME280;2300;51.874;8.430;2023-07-29T10:28:05;99890.31;;;24.09;63.35
4576;BME280;2300;51.874;8.430;2023-07-29T10:30:33;99889.06;;;24.39;64.53
4576;BME280;2300;51.874;8.430;2023-07-29T10:33:02;99892.31;;;24.41;65.31
4576;BME280;2300;51.874;8.430;2023-07-29T10:35:29;99877.56;;;24.11;64.73
4576;BME280;2300;51.874;8.430;2023-07-29T10:37:56;99892.28;;;24.50;67.53
4576;BME280;2300;51.874;8.430;2023-07-29T10:40:23;99883.13;;;24.73;64.81
4576;BME280;2300;51.874;8.430;2023-07-29T10:43:00;99882.09;;;24.45;63.58
4576;BME280;2300;51.874;8.430;2023-07-29T10:45:37;99895.31;;;24.57;63.93
4576;BME280;2300;51.874;8.430;2023-07-29T10:48:06;99886.66;;;24.50;64.31
4576;BME280;2300;51.874;8.430;2023-07-29T10:50:34;99889.03;;;24.81;67.32
4576;BME280;2300;51.874;8.430;2023-07-29T10:53:00;99902.16;;;25.58;65.43
4576;BME280;2300;51.874;8.430;2023-07-29T10:55:29;99894.66;;;25.74;61.38
4576;BME280;2300;51.874;8.430;2023-07-29T10:58:05;99888.00;;;25.54;62.43
4576;BME280;2300;51.874;8.430;2023-07-29T11:00:32;99887.03;;;25.38;61.99
4576;BME280;2300;51.874;8.430;2023-07-29T11:03:01;99896.84;;;25.44;62.45
4576;BME280;2300;51.874;8.430;2023-07-29T11:05:42;99886.28;;;25.17;61.18
4576;BME280;2300;51.874;8.430;2023-07-29T11:08:20;99883.94;;;25.19;62.33
4576;BME280;2300;51.874;8.430;2023-07-29T11:11:02;99889.03;;;24.93;63.35
4576;BME280;2300;51.874;8.430;2023-07-29T11:13:30;99875.44;;;24.83;62.93
4576;BME280;2300;51.874;8.430;2023-07-29T11:15:58;99871.66;;;24.66;62.67
4576;BME280;2300;51.874;8.430;2023-07-29T11:18:29;99879.91;;;24.63;63.89
4576;BME280;2300;51.874;8.430;2023-07-29T11:20:57;99878.97;;;24.59;63.08
4576;BME280;2300;51.874;8.430;2023-07-29T11:23:30;99873.94;;;24.31;63.12
4576;BME280;2300;51.874;8.430;2023-07-29T11:25:57;99871.75;;;24.37;63.91
4576;BME280;2300;51.874;8.430;2023-07-29T11:28:25;99873.88;;;24.40;63.51
4576;BME280;2300;51.874;8.430;2023-07-29T11:30:52;99868.91;;;24.25;63.91
4576;BME280;2300;51.874;8.430;2023-07-29T11:33:20;99866.50;;;24.68;64.43
4576;BME280;2300;51.874;8.430;2023-07-29T11:35:48;99867.72;;;25.37;63.98
4576;BME280;2300;51.874;8.430;2023-07-29T11:38:16;99864.06;;;25.73;62.85
4576;BME280;2300;51.874;8.430;2023-07-29T11:40:43;99862.75;;;25.82;61.86
4576;BME280;2300;51.874;8.430;2023-07-29T11:43:19;99836.31;;;25.23;60.99
4576;BME280;2300;51.874;8.430;2023-07-29T11:45:46;99872.97;;;25.50;61.38
4576;BME280;2300;51.874;8.430;2023-07-29T11:48:12;99873.00;;;25.63;61.40
4576;BME280;2300;51.874;8.430;2023-07-29T11:50:39;99864.19;;;26.01;61.21
4576;BME280;2300;51.874;8.430;2023-07-29T11:53:08;99858.69;;;25.80;60.88
4576;BME280;2300;51.874;8.430;2023-07-29T11:55:35;99857.72;;;25.88;60.80
4576;BME280;2300;51.874;8.430;2023-07-29T11:58:01;99868.44;;;26.22;62.33
4576;BME280;2300;51.874;8.430;2023-07-29T12:00:28;99850.50;;;25.75;60.40
4576;BME280;2300;51.874;8.430;2023-07-29T12:02:55;99877.44;;;25.64;60.78
4576;BME280;2300;51.874;8.430;2023-07-29T12:05:23;99864.09;;;25.48;60.52
4576;BME280;2300;51.874;8.430;2023-07-29T12:07:50;99867.44;;;25.30;62.37
4576;BME280;2300;51.874;8.430;2023-07-29T12:10:18;99866.72;;;25.08;62.48
4576;BME280;2300;51.874;8.430;2023-07-29T12:12:47;99863.47;;;25.06;61.56
4576;BME280;2300;51.874;8.430;2023-07-29T12:15:13;99870.25;;;25.18;62.09
4576;BME280;2300;51.874;8.430;2023-07-29T12:17:48;99853.88;;;25.07;62.53
4576;BME280;2300;51.874;8.430;2023-07-29T12:20:15;99862.13;;;24.80;62.45
4576;BME280;2300;51.874;8.430;2023-07-29T12:22:42;99870.25;;;24.72;63.52
4576;BME280;2300;51.874;8.430;2023-07-29T12:25:09;99861.84;;;24.72;63.77
4576;BME280;2300;51.874;8.430;2023-07-29T12:27:38;99869.63;;;25.00;63.26
4576;BME280;2300;51.874;8.430;2023-07-29T12:30:05;99869.16;;;24.98;62.65
4576;BME280;2300;51.874;8.430;2023-07-29T12:32:32;99870.03;;;24.78;62.80
4576;BME280;2300;51.874;8.430;2023-07-29T12:34:59;99872.84;;;24.78;63.94
4576;BME280;2300;51.874;8.430;2023-07-29T12:37:31;99864.75;;;25.21;63.84
4576;BME280;2300;51.874;8.430;2023-07-29T12:39:58;99878.00;;;25.33;62.61
4576;BME280;2300;51.874;8.430;2023-07-29T12:42:24;99866.38;;;25.10;62.73
4576;BME280;2300;51.874;8.430;2023-07-29T12:44:52;99862.88;;;25.25;62.85
4576;BME280;2300;51.874;8.430;2023-07-29T12:47:19;99857.94;;;24.98;62.40
4576;BME280;2300;51.874;8.430;2023-07-29T12:49:46;99862.75;;;24.64;63.04
4576;BME280;2300;51.874;8.430;2023-07-29T12:52:12;99861.78;;;24.27;63.57
4576;BME280;2300;51.874;8.430;2023-07-29T12:54:40;99858.25;;;23.89;65.29
4576;BME280;2300;51.874;8.430;2023-07-29T12:57:09;99861.63;;;23.82;65.84
4576;BME280;2300;51.874;8.430;2023-07-29T12:59:36;99854.06;;;23.74;66.33
4576;BME280;2300;51.874;8.430;2023-07-29T13:02:04;99815.13;;;23.61;65.80
4576;BME280;2300;51.874;8.430;2023-07-29T13:04:31;99860.34;;;24.21;66.03
4576;BME280;2300;51.874;8.430;2023-07-29T13:06:57;99848.00;;;24.67;65.34
4576;BME280;2300;51.874;8.430;2023-07-29T13:09:24;99850.69;;;25.09;66.23
4576;BME280;2300;51.874;8.430;2023-07-29T13:11:51;99842.78;;;25.60;66.66
4576;BME280;2300;51.874;8.430;2023-07-29T13:14:18;99850.94;;;25.89;63.93
4576;BME280;2300;51.874;8.430;2023-07-29T13:16:44;99852.91;;;25.88;63.33
4576;BME280;2300;51.874;8.430;2023-07-29T13:19:12;99847.88;;;25.82;61.85